createdAt,value
2023-02-08T00:00:22.473Z,101741.68
2023-02-08T00:03:28.303Z,101742.23
2023-02-08T00:06:40.106Z,101745.51
2023-02-08T00:09:42.674Z,101746.10
2023-02-08T00:12:48.158Z,101748.35
2023-02-08T00:15:53.290Z,101749.68
2023-02-08T00:18:59.169Z,101750.52
2023-02-08T00:22:02.942Z,101748.10
2023-02-08T00:25:08.921Z,101748.41
2023-02-08T00:28:16.896Z,101747.30
2023-02-08T00:31:39.151Z,101750.23
2023-02-08T00:34:41.949Z,101754.14
2023-02-08T00:37:45.846Z,101762.54
2023-02-08T00:40:53.341Z,101758.39
2023-02-08T00:43:58.856Z,101757.13
2023-02-08T00:47:03.976Z,101766.36
2023-02-08T00:50:10.829Z,101766.24
2023-02-08T00:53:16.695Z,101767.80
2023-02-08T00:56:25.985Z,101772.99
2023-02-08T00:59:28.770Z,101776.97
2023-02-08T01:02:35.092Z,101784.04
2023-02-08T01:05:42.458Z,101791.91
2023-02-08T01:08:47.701Z,101798.38
2023-02-08T01:11:55.923Z,101803.29
2023-02-08T01:14:59.283Z,101811.59
2023-02-08T01:18:03.836Z,101811.48
2023-02-08T01:21:09.085Z,101811.92
2023-02-08T01:24:14.153Z,101816.11
2023-02-08T01:27:21.411Z,101816.79
2023-02-08T01:30:25.766Z,101823.04
2023-02-08T01:33:29.546Z,101824.55
2023-02-08T01:36:37.510Z,101827.75
2023-02-08T01:39:42.689Z,101828.18
2023-02-08T01:42:48.098Z,101831.39
2023-02-08T01:45:50.916Z,101836.30
2023-02-08T01:49:01.843Z,101840.83
2023-02-08T01:52:33.816Z,101846.13
2023-02-08T01:55:45.531Z,101850.08
2023-02-08T01:58:57.578Z,101858.88
2023-02-08T02:02:07.004Z,101863.09
2023-02-08T02:05:13.885Z,101860.20
2023-02-08T02:08:19.586Z,101865.63
2023-02-08T02:11:24.220Z,101864.30
2023-02-08T02:14:51.825Z,101865.35
2023-02-08T02:17:57.438Z,101870.15
2023-02-08T02:21:45.646Z,101866.65
2023-02-08T02:24:56.978Z,101872.79
2023-02-08T02:28:37.907Z,101881.73
2023-02-08T02:31:49.699Z,101887.33
2023-02-08T02:35:09.332Z,101884.56
2023-02-08T02:38:36.857Z,101886.63
2023-02-08T02:42:29.421Z,101885.36
2023-02-08T02:46:05.212Z,101888.73
2023-02-08T02:49:23.608Z,101891.45
2023-02-08T02:52:42.335Z,101898.34
2023-02-08T02:55:52.327Z,101898.67
2023-02-08T02:59:16.446Z,101900.04
2023-02-08T03:02:29.199Z,101904.70
2023-02-08T03:05:31.572Z,101904.49
2023-02-08T03:08:51.524Z,101905.07
2023-02-08T03:12:12.251Z,101912.22
2023-02-08T03:15:39.826Z,101913.94
2023-02-08T03:19:03.817Z,101915.29
2023-02-08T03:22:53.884Z,101924.03
2023-02-08T03:26:25.846Z,101931.62
2023-02-08T03:29:57.231Z,101933.30
2023-02-08T03:33:40.555Z,101938.17
2023-02-08T03:37:22.345Z,101944.45
2023-02-08T03:40:51.036Z,101947.98
2023-02-08T03:44:39.290Z,101952.02
2023-02-08T03:47:49.050Z,101952.42
2023-02-08T03:51:02.471Z,101955.52
2023-02-08T03:54:17.402Z,101964.65
2023-02-08T03:57:31.492Z,101967.37
2023-02-08T04:00:41.718Z,101969.95
2023-02-08T04:03:49.657Z,101972.33
2023-02-08T04:06:57.852Z,101977.05
2023-02-08T04:10:07.450Z,101982.89
2023-02-08T04:13:19.412Z,101991.08
2023-02-08T04:17:01.858Z,101996.45
2023-02-08T04:20:17.399Z,101997.27
2023-02-08T04:23:32.620Z,101996.47
2023-02-08T04:26:41.903Z,102005.68
2023-02-08T04:29:51.403Z,102010.08
2023-02-08T04:33:07.709Z,102008.86
2023-02-08T04:36:25.634Z,102015.35
2023-02-08T04:39:38.273Z,102015.99
2023-02-08T04:42:43.473Z,102024.94
2023-02-08T04:45:51.690Z,102022.94
2023-02-08T04:49:03.032Z,102021.64
2023-02-08T04:52:25.699Z,102021.00
2023-02-08T04:55:38.642Z,102024.95
2023-02-08T04:58:49.408Z,102030.98
2023-02-08T05:02:01.550Z,102033.81
2023-02-08T05:05:10.761Z,102039.66
2023-02-08T05:08:20.534Z,102040.60
2023-02-08T05:11:44.269Z,102048.80
2023-02-08T05:14:57.292Z,102045.59
2023-02-08T05:18:10.418Z,102045.73
2023-02-08T05:21:16.788Z,102043.77
2023-02-08T05:24:29.610Z,102047.64
2023-02-08T05:27:44.474Z,102050.51
2023-02-08T05:31:30.757Z,102062.78
2023-02-08T05:34:48.876Z,102062.34
2023-02-08T05:37:58.066Z,102075.43
2023-02-08T05:41:35.745Z,102081.47
2023-02-08T05:45:04.757Z,102085.46
2023-02-08T05:48:25.374Z,102085.44
2023-02-08T05:51:37.675Z,102090.77
2023-02-08T05:54:54.249Z,102092.73
2023-02-08T05:58:05.965Z,102101.75
2023-02-08T06:01:39.029Z,102102.73
2023-02-08T06:04:57.863Z,102109.33
2023-02-08T06:08:14.115Z,102105.92
2023-02-08T06:11:31.465Z,102107.13
2023-02-08T06:14:46.099Z,102109.77
2023-02-08T06:18:02.933Z,102109.14
2023-02-08T06:21:34.496Z,102108.63
2023-02-08T06:24:41.516Z,102111.86
2023-02-08T06:27:57.501Z,102116.08
2023-02-08T06:31:01.239Z,102113.40
2023-02-08T06:34:06.147Z,102119.54
2023-02-08T06:37:12.273Z,102121.36
2023-02-08T07:36:23.726Z,102138.16
2023-02-08T07:39:32.158Z,102141.44
2023-02-08T07:42:41.421Z,102143.40
2023-02-08T07:45:53.935Z,102143.85
2023-02-08T07:48:58.812Z,102143.26
2023-02-08T07:52:04.301Z,102141.05
2023-02-08T07:55:10.135Z,102144.99
2023-02-08T07:58:23.194Z,102147.63
2023-02-08T08:01:30.789Z,102143.39
2023-02-08T08:04:36.109Z,102146.77
2023-02-08T08:07:43.323Z,102148.24
2023-02-08T08:10:52.502Z,102149.93
2023-02-08T08:13:59.222Z,102151.83
2023-02-08T08:17:07.531Z,102148.78
2023-02-08T08:20:13.413Z,102148.61
2023-02-08T08:23:17.149Z,102153.33
2023-02-08T08:26:25.078Z,102153.67
2023-02-08T08:29:32.964Z,102149.90
2023-02-08T08:32:40.334Z,102152.05
2023-02-08T08:35:47.397Z,102152.89
2023-02-08T08:38:54.686Z,102154.52
2023-02-08T08:41:59.582Z,102155.61
2023-02-08T08:45:04.666Z,102156.66
2023-02-08T08:48:11.158Z,102157.74
2023-02-08T08:51:16.818Z,102161.78
2023-02-08T08:54:21.827Z,102160.54
2023-02-08T08:57:26.992Z,102155.92
2023-02-08T09:00:31.797Z,102155.35
2023-02-08T09:03:41.457Z,102152.91
2023-02-08T09:06:45.631Z,102157.52
2023-02-08T09:09:51.180Z,102158.82
2023-02-08T09:12:59.759Z,102159.70
2023-02-08T09:16:12.372Z,102158.26
2023-02-08T09:19:20.240Z,102158.95
2023-02-08T09:22:37.254Z,102160.45
2023-02-08T09:25:50.222Z,102154.78
2023-02-08T09:28:55.888Z,102149.89
2023-02-08T09:32:04.181Z,102148.27
2023-02-08T09:35:13.895Z,102148.12
2023-02-08T09:38:19.959Z,102147.27
2023-02-08T09:42:01.862Z,102145.56
2023-02-08T09:45:31.948Z,102142.09
2023-02-08T09:48:39.281Z,102139.86
2023-02-08T09:52:02.875Z,102140.09
2023-02-08T09:55:39.484Z,102131.99
2023-02-08T09:58:55.378Z,102123.67
2023-02-08T10:02:26.489Z,102119.58
2023-02-08T10:05:36.160Z,102111.16
2023-02-08T10:08:48.691Z,102105.35
2023-02-08T10:12:28.105Z,102105.93
2023-02-08T10:15:48.885Z,102101.40
2023-02-08T10:19:25.776Z,102100.85
2023-02-08T10:22:35.331Z,102105.33
2023-02-08T10:25:56.899Z,102105.55
2023-02-08T10:29:27.596Z,102102.70
2023-02-08T10:33:37.843Z,102102.92
2023-02-08T10:36:45.338Z,102103.95
2023-02-08T10:39:51.106Z,102103.77
2023-02-08T10:43:35.939Z,102100.15
2023-02-08T10:46:55.448Z,102102.00
2023-02-08T10:50:24.194Z,102098.91
2023-02-08T10:53:32.589Z,102102.65
2023-02-08T10:56:48.819Z,102102.55
2023-02-08T11:00:03.924Z,102104.21
2023-02-08T11:04:00.278Z,102103.52
2023-02-08T11:07:23.118Z,102108.56
2023-02-08T11:10:29.266Z,102100.40
2023-02-08T11:13:38.156Z,102095.47
2023-02-08T11:16:44.872Z,102103.04
2023-02-08T11:19:54.938Z,102103.32
2023-02-08T11:23:00.321Z,102103.71
2023-02-08T11:26:42.751Z,102106.36
2023-02-08T11:29:49.130Z,102107.45
2023-02-08T11:33:20.284Z,102106.23
2023-02-08T11:36:24.548Z,102106.38
2023-02-08T11:40:06.330Z,102105.50
2023-02-08T11:43:32.870Z,102109.50
2023-02-08T11:46:42.872Z,102111.09
2023-02-08T11:49:56.693Z,102104.45
2023-02-08T11:53:36.877Z,102103.76
2023-02-08T11:56:43.398Z,102100.36
2023-02-08T11:59:51.305Z,102103.70
2023-02-08T12:03:19.050Z,102097.20
2023-02-08T12:06:44.717Z,102096.09
2023-02-08T12:10:14.078Z,102092.51
2023-02-08T12:13:46.912Z,102091.02
2023-02-08T12:17:32.083Z,102089.26
2023-02-08T12:20:47.895Z,102090.83
2023-02-08T12:24:00.676Z,102093.97
2023-02-08T12:27:10.762Z,102096.96
2023-02-08T12:30:37.309Z,102095.59
2023-02-08T12:34:01.654Z,102096.67
2023-02-08T12:37:49.366Z,102096.80
2023-02-08T12:41:10.393Z,102091.86
2023-02-08T12:44:19.477Z,102081.27
2023-02-08T12:48:09.040Z,102082.58
2023-02-08T12:51:59.771Z,102081.96
2023-02-08T12:55:19.101Z,102078.34
2023-02-08T12:58:30.655Z,102081.11
2023-02-08T13:01:51.729Z,102079.70
2023-02-08T13:05:02.584Z,102080.77
2023-02-08T13:08:13.964Z,102079.38
2023-02-08T13:11:49.692Z,102070.55
2023-02-08T13:15:29.621Z,102065.98
2023-02-08T13:18:58.957Z,102060.41
2023-02-08T13:22:07.613Z,102056.66
2023-02-08T13:25:31.584Z,102052.41
2023-02-08T13:28:36.360Z,102048.95
2023-02-08T13:31:49.678Z,102050.35
2023-02-08T13:35:20.455Z,102049.67
2023-02-08T13:38:35.767Z,102041.95
2023-02-08T13:41:54.446Z,102044.32
2023-02-08T13:45:03.379Z,102038.46
2023-02-08T13:48:12.879Z,102032.54
2023-02-08T13:51:53.914Z,102029.92
2023-02-08T13:55:34.454Z,102027.27
2023-02-08T13:59:01.664Z,102029.38
2023-02-08T14:02:27.265Z,102030.35
2023-02-08T14:06:12.860Z,102030.59
2023-02-08T14:09:25.306Z,102032.34
2023-02-08T14:12:48.597Z,102033.48
2023-02-08T14:16:27.564Z,102034.05
2023-02-08T14:19:43.579Z,102036.10
2023-02-08T14:23:05.903Z,102039.70
2023-02-08T14:26:24.356Z,102042.00
2023-02-08T14:29:33.815Z,102034.98
2023-02-08T14:32:40.671Z,102045.52
2023-02-08T14:35:55.776Z,102052.40
2023-02-08T14:39:29.348Z,102054.45
2023-02-08T14:42:53.959Z,102056.70
2023-02-08T14:46:42.182Z,102051.88
2023-02-08T14:49:51.388Z,102051.07
2023-02-08T14:53:27.900Z,102057.46
2023-02-08T14:56:53.929Z,102065.40
2023-02-08T15:00:07.271Z,102071.89
2023-02-08T15:03:15.693Z,102074.63
2023-02-08T15:07:22.347Z,102077.73
2023-02-08T15:10:32.322Z,102078.50
2023-02-08T15:14:01.153Z,102075.21
2023-02-08T15:17:15.723Z,102077.01
2023-02-08T15:20:25.766Z,102076.86
2023-02-08T15:23:31.823Z,102077.77
2023-02-08T15:26:53.617Z,102079.05
2023-02-08T15:29:57.801Z,102079.98
2023-02-08T15:33:13.363Z,102077.86
2023-02-08T15:36:23.751Z,102077.13
2023-02-08T15:39:41.636Z,102079.01
2023-02-08T15:42:52.728Z,102078.30
2023-02-08T15:46:01.085Z,102080.02
2023-02-08T15:49:14.637Z,102080.87
2023-02-08T15:52:27.282Z,102083.42
2023-02-08T15:55:44.886Z,102087.60
2023-02-08T15:58:54.865Z,102095.59
2023-02-08T16:02:23.764Z,102097.56
2023-02-08T16:05:34.261Z,102091.63
2023-02-08T16:08:46.621Z,102094.86
2023-02-08T16:11:53.603Z,102092.52
2023-02-08T16:15:02.231Z,102091.04
2023-02-08T16:19:07.595Z,102098.90
2023-02-08T16:22:37.519Z,102095.71
2023-02-08T16:30:04.031Z,102098.73
2023-02-08T16:33:45.421Z,102097.04
2023-02-08T16:46:45.154Z,102100.30
2023-02-08T16:50:04.445Z,102099.85
2023-02-08T16:53:41.485Z,102099.77
2023-02-08T16:57:11.507Z,102101.81
2023-02-08T17:01:04.067Z,102096.55
2023-02-08T17:04:13.634Z,102094.23
2023-02-08T17:13:03.862Z,102083.82
2023-02-08T17:16:27.498Z,102082.86
2023-02-08T17:19:38.985Z,102082.93
2023-02-08T17:22:53.124Z,102083.36
2023-02-08T17:26:15.257Z,102086.55
2023-02-08T17:29:31.419Z,102084.70
2023-02-08T17:32:45.881Z,102087.77
2023-02-08T17:35:56.079Z,102088.30
2023-02-08T17:39:01.605Z,102085.59
2023-02-08T17:42:13.976Z,102083.39
2023-02-08T17:45:27.840Z,102075.86
2023-02-08T17:48:37.999Z,102068.66
2023-02-08T17:51:49.075Z,102069.06
2023-02-08T17:55:11.531Z,102066.05
2023-02-08T17:58:19.640Z,102066.75
2023-02-08T18:01:31.996Z,102065.39
2023-02-08T18:04:39.837Z,102064.81
2023-02-08T18:07:51.422Z,102067.48
2023-02-08T18:11:05.272Z,102064.67
2023-02-08T18:14:13.292Z,102064.50
2023-02-08T18:17:21.021Z,102067.30
2023-02-08T18:20:36.244Z,102060.66
2023-02-08T18:23:55.975Z,102059.83
2023-02-08T18:27:02.532Z,102058.67
2023-02-08T18:30:14.208Z,102054.17
2023-02-08T18:33:26.782Z,102058.20
2023-02-08T18:36:36.022Z,102054.60
2023-02-08T18:39:47.677Z,102050.48
2023-02-08T18:42:57.732Z,102051.08
2023-02-08T18:46:07.264Z,102053.54
2023-02-08T18:49:17.121Z,102051.95
2023-02-08T18:52:23.947Z,102049.09
2023-02-08T18:55:34.261Z,102047.06
2023-02-08T18:58:40.800Z,102045.11
2023-02-08T19:01:57.334Z,102050.23
2023-02-08T19:05:15.762Z,102047.21
2023-02-08T19:08:30.144Z,102042.48
2023-02-08T19:11:40.473Z,102043.48
2023-02-08T19:14:55.593Z,102042.37
2023-02-08T19:18:00.022Z,102039.54
2023-02-08T19:21:26.046Z,102039.16
2023-02-08T19:24:35.204Z,102037.48
2023-02-08T19:27:46.014Z,102035.22
2023-02-08T19:30:51.044Z,102035.55
2023-02-08T19:34:00.473Z,102035.88
2023-02-08T19:37:07.977Z,102035.13
2023-02-08T19:40:18.359Z,102035.03
2023-02-08T19:43:27.050Z,102041.23
2023-02-08T19:46:53.219Z,102046.59
2023-02-08T19:50:04.380Z,102042.92
2023-02-08T19:53:11.149Z,102046.14
2023-02-08T19:56:21.436Z,102046.46
2023-02-08T19:59:35.455Z,102042.10
2023-02-08T20:02:45.222Z,102031.91
2023-02-08T20:05:59.810Z,102036.08
2023-02-08T20:09:05.471Z,102031.36
2023-02-08T20:12:14.404Z,102028.70
2023-02-08T20:15:21.580Z,102033.38
2023-02-08T20:18:28.831Z,102029.27
2023-02-08T20:21:44.577Z,102028.60
2023-02-08T20:24:56.146Z,102023.33
2023-02-08T20:28:06.244Z,102018.91
2023-02-08T20:31:17.884Z,102018.65
2023-02-08T20:34:59.771Z,102014.28
2023-02-08T20:38:15.725Z,102011.95
2023-02-08T20:41:23.206Z,102008.09
2023-02-08T20:44:29.085Z,102004.03
2023-02-08T20:58:58.005Z,102010.45
2023-02-08T21:02:04.676Z,102006.92
2023-02-08T21:05:09.118Z,102000.45
2023-02-08T21:08:12.881Z,101996.39
2023-02-08T21:11:14.981Z,101995.64
2023-02-08T21:14:20.865Z,101996.59
2023-02-08T21:17:24.031Z,101993.19
2023-02-08T21:20:33.887Z,101988.48
2023-02-08T21:23:43.246Z,101984.60
2023-02-08T21:26:52.026Z,101986.92
2023-02-08T21:29:58.970Z,101993.86
2023-02-08T21:33:02.070Z,101991.83
2023-02-08T21:36:10.122Z,101991.20
2023-02-08T21:39:17.573Z,101994.23
2023-02-08T21:42:23.627Z,101993.27
2023-02-08T21:45:28.225Z,101988.75
2023-02-08T21:48:55.156Z,101995.09
2023-02-08T21:52:22.787Z,101993.95
2023-02-08T21:55:33.780Z,101997.07
2023-02-08T21:58:44.476Z,101998.42
2023-02-08T22:01:48.988Z,101996.95
2023-02-08T22:04:54.443Z,101992.40
2023-02-08T22:08:00.821Z,101987.29
2023-02-08T22:11:16.124Z,101983.58
2023-02-08T22:14:19.924Z,101983.07
2023-02-08T22:17:26.996Z,101982.26
2023-02-08T22:20:30.327Z,101980.13
2023-02-08T22:23:32.705Z,101978.48
2023-02-08T22:26:39.028Z,101972.21
2023-02-08T22:29:43.078Z,101968.55
2023-02-08T22:32:48.557Z,101971.94
2023-02-08T22:35:56.301Z,101974.13
2023-02-08T22:39:00.246Z,101980.76
2023-02-08T22:42:08.379Z,101976.52
2023-02-08T22:45:13.000Z,101962.64
2023-02-08T22:48:15.585Z,101958.08
2023-02-08T22:51:23.138Z,101950.92
2023-02-08T22:54:26.642Z,101943.99
2023-02-08T22:57:31.688Z,101944.48
2023-02-08T23:00:36.912Z,101942.90
2023-02-08T23:03:41.281Z,101940.30
2023-02-08T23:06:43.923Z,101938.77
2023-02-08T23:09:47.767Z,101940.67
2023-02-08T23:12:51.728Z,101937.02
2023-02-08T23:15:56.559Z,101932.64
2023-02-08T23:19:00.082Z,101931.88
2023-02-08T23:22:03.358Z,101931.13
